sensor_id;sensor_type;location;lat;lon;timestamp;temperature;humidity
10316;DHT22;5203;48.976;8.306;2024-03-22T00:01:49;11.30;89.60
10316;DHT22;5203;48.976;8.306;2024-03-22T00:04:17;11.30;89.90
10316;DHT22;5203;48.976;8.306;2024-03-22T00:06:47;11.30;89.80
10316;DHT22;5203;48.976;8.306;2024-03-22T00:09:14;11.30;90.00
10316;DHT22;5203;48.976;8.306;2024-03-22T00:11:40;11.10;90.70
10316;DHT22;5203;48.976;8.306;2024-03-22T00:14:06;11.10;90.60
10316;DHT22;5203;48.976;8.306;2024-03-22T00:16:33;10.90;91.40
10316;DHT22;5203;48.976;8.306;2024-03-22T00:18:58;10.90;91.40
10316;DHT22;5203;48.976;8.306;2024-03-22T00:21:24;10.80;91.90
10316;DHT22;5203;48.976;8.306;2024-03-22T00:23:50;10.70;92.50
10316;DHT22;5203;48.976;8.306;2024-03-22T00:26:15;10.80;92.10
10316;DHT22;5203;48.976;8.306;2024-03-22T00:28:41;10.70;93.70
10316;DHT22;5203;48.976;8.306;2024-03-22T00:31:08;10.70;93.20
10316;DHT22;5203;48.976;8.306;2024-03-22T00:33:33;10.70;92.80
10316;DHT22;5203;48.976;8.306;2024-03-22T00:35:59;10.60;93.10
10316;DHT22;5203;48.976;8.306;2024-03-22T00:38:25;10.60;93.00
10316;DHT22;5203;48.976;8.306;2024-03-22T00:40:50;10.50;93.60
10316;DHT22;5203;48.976;8.306;2024-03-22T00:43:16;10.40;94.10
10316;DHT22;5203;48.976;8.306;2024-03-22T00:45:42;10.50;94.10
10316;DHT22;5203;48.976;8.306;2024-03-22T00:48:08;10.50;94.00
10316;DHT22;5203;48.976;8.306;2024-03-22T00:50:34;10.40;94.40
10316;DHT22;5203;48.976;8.306;2024-03-22T00:53:00;10.40;94.50
10316;DHT22;5203;48.976;8.306;2024-03-22T00:55:28;10.40;94.50
10316;DHT22;5203;48.976;8.306;2024-03-22T00:57:53;10.40;94.60
10316;DHT22;5203;48.976;8.306;2024-03-22T01:00:19;10.40;95.00
10316;DHT22;5203;48.976;8.306;2024-03-22T01:02:45;10.40;94.90
10316;DHT22;5203;48.976;8.306;2024-03-22T01:05:10;10.40;94.70
10316;DHT22;5203;48.976;8.306;2024-03-22T01:07:37;10.30;95.10
10316;DHT22;5203;48.976;8.306;2024-03-22T01:10:06;10.30;94.80
10316;DHT22;5203;48.976;8.306;2024-03-22T01:12:31;10.30;94.70
10316;DHT22;5203;48.976;8.306;2024-03-22T01:14:58;10.20;94.90
10316;DHT22;5203;48.976;8.306;2024-03-22T01:17:24;10.00;95.20
10316;DHT22;5203;48.976;8.306;2024-03-22T01:19:50;10.00;95.60
10316;DHT22;5203;48.976;8.306;2024-03-22T01:22:17;9.90;95.60
10316;DHT22;5203;48.976;8.306;2024-03-22T01:24:43;10.00;95.20
10316;DHT22;5203;48.976;8.306;2024-03-22T01:27:09;9.90;95.30
10316;DHT22;5203;48.976;8.306;2024-03-22T01:29:34;9.90;95.40
10316;DHT22;5203;48.976;8.306;2024-03-22T01:32:01;9.90;95.10
10316;DHT22;5203;48.976;8.306;2024-03-22T01:34:26;9.90;95.30
10316;DHT22;5203;48.976;8.306;2024-03-22T01:36:52;9.70;95.40
10316;DHT22;5203;48.976;8.306;2024-03-22T01:39:21;9.70;95.90
10316;DHT22;5203;48.976;8.306;2024-03-22T01:41:50;9.60;96.60
10316;DHT22;5203;48.976;8.306;2024-03-22T01:44:17;9.70;96.60
10316;DHT22;5203;48.976;8.306;2024-03-22T01:46:43;9.70;95.80
10316;DHT22;5203;48.976;8.306;2024-03-22T01:49:11;9.70;95.90
10316;DHT22;5203;48.976;8.306;2024-03-22T01:51:41;9.70;95.60
10316;DHT22;5203;48.976;8.306;2024-03-22T01:54:09;9.60;95.80
10316;DHT22;5203;48.976;8.306;2024-03-22T01:56:37;9.60;96.40
10316;DHT22;5203;48.976;8.306;2024-03-22T01:59:05;9.50;96.60
10316;DHT22;5203;48.976;8.306;2024-03-22T02:01:32;9.50;96.50
10316;DHT22;5203;48.976;8.306;2024-03-22T02:03:57;9.50;96.90
10316;DHT22;5203;48.976;8.306;2024-03-22T02:06:23;9.50;97.70
10316;DHT22;5203;48.976;8.306;2024-03-22T02:08:49;9.50;97.70
10316;DHT22;5203;48.976;8.306;2024-03-22T02:11:14;9.40;98.00
10316;DHT22;5203;48.976;8.306;2024-03-22T02:13:40;9.50;97.80
10316;DHT22;5203;48.976;8.306;2024-03-22T02:16:06;9.40;98.80
10316;DHT22;5203;48.976;8.306;2024-03-22T02:18:32;9.40;99.00
10316;DHT22;5203;48.976;8.306;2024-03-22T02:20:57;9.40;98.90
10316;DHT22;5203;48.976;8.306;2024-03-22T02:25:54;9.50;99.30
10316;DHT22;5203;48.976;8.306;2024-03-22T02:28:20;9.60;99.50
10316;DHT22;5203;48.976;8.306;2024-03-22T02:30:46;9.60;99.80
10316;DHT22;5203;48.976;8.306;2024-03-22T02:33:12;9.70;99.70
10316;DHT22;5203;48.976;8.306;2024-03-22T02:35:38;9.70;99.90
10316;DHT22;5203;48.976;8.306;2024-03-22T02:38:03;9.80;99.90
10316;DHT22;5203;48.976;8.306;2024-03-22T02:40:29;9.80;98.90
10316;DHT22;5203;48.976;8.306;2024-03-22T02:42:55;9.80;98.20
10316;DHT22;5203;48.976;8.306;2024-03-22T02:45:20;9.80;98.80
10316;DHT22;5203;48.976;8.306;2024-03-22T02:47:46;9.80;97.70
10316;DHT22;5203;48.976;8.306;2024-03-22T02:50:12;9.80;98.20
10316;DHT22;5203;48.976;8.306;2024-03-22T02:52:38;9.80;98.40
10316;DHT22;5203;48.976;8.306;2024-03-22T02:55:03;9.80;98.10
10316;DHT22;5203;48.976;8.306;2024-03-22T02:57:29;9.80;97.90
10316;DHT22;5203;48.976;8.306;2024-03-22T02:59:55;9.80;97.60
10316;DHT22;5203;48.976;8.306;2024-03-22T03:02:21;9.80;97.70
10316;DHT22;5203;48.976;8.306;2024-03-22T03:04:46;9.80;97.70
10316;DHT22;5203;48.976;8.306;2024-03-22T03:07:12;9.80;97.90
10316;DHT22;5203;48.976;8.306;2024-03-22T03:09:37;9.80;98.20
10316;DHT22;5203;48.976;8.306;2024-03-22T03:12:03;9.80;98.40
10316;DHT22;5203;48.976;8.306;2024-03-22T03:14:29;9.80;98.90
10316;DHT22;5203;48.976;8.306;2024-03-22T03:16:55;9.80;98.60
10316;DHT22;5203;48.976;8.306;2024-03-22T03:19:21;9.80;98.00
10316;DHT22;5203;48.976;8.306;2024-03-22T03:21:46;9.70;98.60
10316;DHT22;5203;48.976;8.306;2024-03-22T03:24:12;9.80;98.80
10316;DHT22;5203;48.976;8.306;2024-03-22T03:26:40;9.70;98.70
10316;DHT22;5203;48.976;8.306;2024-03-22T03:29:06;9.80;98.70
10316;DHT22;5203;48.976;8.306;2024-03-22T03:31:31;9.80;99.00
10316;DHT22;5203;48.976;8.306;2024-03-22T03:33:57;9.80;99.10
10316;DHT22;5203;48.976;8.306;2024-03-22T03:36:23;9.90;98.90
10316;DHT22;5203;48.976;8.306;2024-03-22T03:38:48;9.80;98.60
10316;DHT22;5203;48.976;8.306;2024-03-22T03:41:14;9.80;98.90
10316;DHT22;5203;48.976;8.306;2024-03-22T03:43:40;9.80;98.80
10316;DHT22;5203;48.976;8.306;2024-03-22T03:46:05;9.90;99.50
10316;DHT22;5203;48.976;8.306;2024-03-22T03:48:31;9.80;99.90
10316;DHT22;5203;48.976;8.306;2024-03-22T03:50:59;9.80;99.90
10316;DHT22;5203;48.976;8.306;2024-03-22T03:53:28;9.90;99.70
10316;DHT22;5203;48.976;8.306;2024-03-22T03:55:54;10.00;99.40
10316;DHT22;5203;48.976;8.306;2024-03-22T03:58:20;10.00;98.90
10316;DHT22;5203;48.976;8.306;2024-03-22T04:00:45;9.90;99.50
10316;DHT22;5203;48.976;8.306;2024-03-22T04:03:11;9.90;99.60
10316;DHT22;5203;48.976;8.306;2024-03-22T04:05:37;9.90;99.50
10316;DHT22;5203;48.976;8.306;2024-03-22T04:08:02;10.00;99.50
10316;DHT22;5203;48.976;8.306;2024-03-22T04:10:28;10.00;99.50
10316;DHT22;5203;48.976;8.306;2024-03-22T04:12:54;9.90;99.90
10316;DHT22;5203;48.976;8.306;2024-03-22T04:15:19;9.90;99.90
10316;DHT22;5203;48.976;8.306;2024-03-22T04:17:45;9.90;99.80
10316;DHT22;5203;48.976;8.306;2024-03-22T04:20:11;9.80;99.90
10316;DHT22;5203;48.976;8.306;2024-03-22T04:22:37;9.80;99.90
10316;DHT22;5203;48.976;8.306;2024-03-22T04:25:03;9.80;99.90
10316;DHT22;5203;48.976;8.306;2024-03-22T04:27:29;9.80;99.90
10316;DHT22;5203;48.976;8.306;2024-03-22T04:29:54;9.80;99.90
10316;DHT22;5203;48.976;8.306;2024-03-22T04:32:20;9.80;99.90
10316;DHT22;5203;48.976;8.306;2024-03-22T04:34:46;9.90;99.80
10316;DHT22;5203;48.976;8.306;2024-03-22T04:37:29;10.00;99.60
10316;DHT22;5203;48.976;8.306;2024-03-22T04:40:02;10.00;99.20
10316;DHT22;5203;48.976;8.306;2024-03-22T04:42:28;10.00;98.90
10316;DHT22;5203;48.976;8.306;2024-03-22T04:44:53;10.00;98.80
10316;DHT22;5203;48.976;8.306;2024-03-22T04:47:20;10.00;98.70
10316;DHT22;5203;48.976;8.306;2024-03-22T04:49:45;10.00;99.00
10316;DHT22;5203;48.976;8.306;2024-03-22T04:52:11;10.00;99.10
10316;DHT22;5203;48.976;8.306;2024-03-22T04:54:37;10.00;99.20
10316;DHT22;5203;48.976;8.306;2024-03-22T04:57:03;9.90;99.50
10316;DHT22;5203;48.976;8.306;2024-03-22T04:59:28;9.80;99.50
10316;DHT22;5203;48.976;8.306;2024-03-22T05:01:54;9.80;99.90
10316;DHT22;5203;48.976;8.306;2024-03-22T05:04:20;9.80;99.90
10316;DHT22;5203;48.976;8.306;2024-03-22T05:06:45;9.80;99.90
10316;DHT22;5203;48.976;8.306;2024-03-22T05:09:11;9.70;99.90
10316;DHT22;5203;48.976;8.306;2024-03-22T05:11:37;9.80;99.60
10316;DHT22;5203;48.976;8.306;2024-03-22T05:14:02;9.80;99.60
10316;DHT22;5203;48.976;8.306;2024-03-22T05:16:28;9.90;99.50
10316;DHT22;5203;48.976;8.306;2024-03-22T05:18:54;9.80;99.20
10316;DHT22;5203;48.976;8.306;2024-03-22T05:21:20;9.80;99.10
10316;DHT22;5203;48.976;8.306;2024-03-22T05:23:46;9.80;99.20
10316;DHT22;5203;48.976;8.306;2024-03-22T05:26:12;9.80;99.90
10316;DHT22;5203;48.976;8.306;2024-03-22T05:28:37;9.80;99.90
10316;DHT22;5203;48.976;8.306;2024-03-22T05:31:03;9.80;99.90
10316;DHT22;5203;48.976;8.306;2024-03-22T05:33:34;9.80;99.90
10316;DHT22;5203;48.976;8.306;2024-03-22T05:36:00;9.80;99.90
10316;DHT22;5203;48.976;8.306;2024-03-22T05:38:26;9.80;99.90
10316;DHT22;5203;48.976;8.306;2024-03-22T05:40:54;9.90;99.90
10316;DHT22;5203;48.976;8.306;2024-03-22T05:43:20;9.80;99.40
10316;DHT22;5203;48.976;8.306;2024-03-22T05:45:48;9.80;99.30
10316;DHT22;5203;48.976;8.306;2024-03-22T05:48:14;9.80;99.30
10316;DHT22;5203;48.976;8.306;2024-03-22T05:50:43;9.80;99.30
10316;DHT22;5203;48.976;8.306;2024-03-22T05:53:09;9.80;98.60
10316;DHT22;5203;48.976;8.306;2024-03-22T05:55:38;9.90;98.50
10316;DHT22;5203;48.976;8.306;2024-03-22T05:58:10;9.90;98.50
10316;DHT22;5203;48.976;8.306;2024-03-22T06:00:35;10.00;97.70
10316;DHT22;5203;48.976;8.306;2024-03-22T06:03:01;10.00;97.40
10316;DHT22;5203;48.976;8.306;2024-03-22T06:05:27;10.00;97.80
10316;DHT22;5203;48.976;8.306;2024-03-22T06:07:53;10.00;97.70
10316;DHT22;5203;48.976;8.306;2024-03-22T06:10:27;10.00;98.20
10316;DHT22;5203;48.976;8.306;2024-03-22T06:12:58;10.00;98.30
10316;DHT22;5203;48.976;8.306;2024-03-22T06:15:23;10.00;98.50
10316;DHT22;5203;48.976;8.306;2024-03-22T06:17:49;10.10;98.50
10316;DHT22;5203;48.976;8.306;2024-03-22T06:20:15;10.00;98.30
10316;DHT22;5203;48.976;8.306;2024-03-22T06:22:41;10.10;98.60
10316;DHT22;5203;48.976;8.306;2024-03-22T06:25:07;10.10;98.40
10316;DHT22;5203;48.976;8.306;2024-03-22T06:27:33;10.20;98.50
10316;DHT22;5203;48.976;8.306;2024-03-22T06:29:58;10.20;98.60
10316;DHT22;5203;48.976;8.306;2024-03-22T06:32:24;10.20;98.60
10316;DHT22;5203;48.976;8.306;2024-03-22T06:34:53;10.20;99.10
10316;DHT22;5203;48.976;8.306;2024-03-22T06:37:21;10.20;99.30
10316;DHT22;5203;48.976;8.306;2024-03-22T06:39:58;10.20;99.60
10316;DHT22;5203;48.976;8.306;2024-03-22T06:42:33;10.20;99.90
10316;DHT22;5203;48.976;8.306;2024-03-22T06:45:02;10.20;99.90
10316;DHT22;5203;48.976;8.306;2024-03-22T06:47:30;10.20;99.90
10316;DHT22;5203;48.976;8.306;2024-03-22T06:50:08;10.20;99.90
10316;DHT22;5203;48.976;8.306;2024-03-22T06:52:40;10.30;99.90
10316;DHT22;5203;48.976;8.306;2024-03-22T06:55:08;10.30;99.90
10316;DHT22;5203;48.976;8.306;2024-03-22T06:57:53;10.40;99.90
10316;DHT22;5203;48.976;8.306;2024-03-22T07:00:37;10.40;99.90
10316;DHT22;5203;48.976;8.306;2024-03-22T07:03:05;10.50;99.60
10316;DHT22;5203;48.976;8.306;2024-03-22T07:05:49;10.50;99.90
10316;DHT22;5203;48.976;8.306;2024-03-22T07:08:23;10.70;99.80
10316;DHT22;5203;48.976;8.306;2024-03-22T07:11:13;10.70;98.60
10316;DHT22;5203;48.976;8.306;2024-03-22T07:16:24;10.90;97.30
10316;DHT22;5203;48.976;8.306;2024-03-22T07:18:56;11.00;96.90
10316;DHT22;5203;48.976;8.306;2024-03-22T07:21:22;11.00;96.10
10316;DHT22;5203;48.976;8.306;2024-03-22T07:23:58;11.20;95.30
10316;DHT22;5203;48.976;8.306;2024-03-22T07:26:30;11.30;95.80
10316;DHT22;5203;48.976;8.306;2024-03-22T07:29:10;11.30;94.70
10316;DHT22;5203;48.976;8.306;2024-03-22T07:31:40;11.40;95.00
10316;DHT22;5203;48.976;8.306;2024-03-22T07:34:14;11.50;93.70
10316;DHT22;5203;48.976;8.306;2024-03-22T07:36:55;11.60;93.00
10316;DHT22;5203;48.976;8.306;2024-03-22T07:39:36;11.70;92.60
10316;DHT22;5203;48.976;8.306;2024-03-22T07:42:02;11.70;92.10
10316;DHT22;5203;48.976;8.306;2024-03-22T07:44:30;11.80;92.50
10316;DHT22;5203;48.976;8.306;2024-03-22T07:47:06;11.90;91.60
10316;DHT22;5203;48.976;8.306;2024-03-22T07:49:38;12.10;91.20
10316;DHT22;5203;48.976;8.306;2024-03-22T07:52:04;12.30;91.10
10316;DHT22;5203;48.976;8.306;2024-03-22T07:54:33;12.30;88.60
10316;DHT22;5203;48.976;8.306;2024-03-22T07:57:02;12.40;88.40
10316;DHT22;5203;48.976;8.306;2024-03-22T07:59:36;12.60;88.30
10316;DHT22;5203;48.976;8.306;2024-03-22T08:02:05;12.70;86.10
10316;DHT22;5203;48.976;8.306;2024-03-22T08:04:39;12.90;84.80
10316;DHT22;5203;48.976;8.306;2024-03-22T08:07:08;13.10;85.90
10316;DHT22;5203;48.976;8.306;2024-03-22T08:09:50;13.20;83.40
10316;DHT22;5203;48.976;8.306;2024-03-22T08:12:35;13.50;82.60
10316;DHT22;5203;48.976;8.306;2024-03-22T08:15:20;13.70;82.90
10316;DHT22;5203;48.976;8.306;2024-03-22T08:18:06;13.90;80.80
10316;DHT22;5203;48.976;8.306;2024-03-22T08:20:41;14.00;78.40
10316;DHT22;5203;48.976;8.306;2024-03-22T08:23:19;14.10;76.50
10316;DHT22;5203;48.976;8.306;2024-03-22T08:25:49;14.20;76.70
10316;DHT22;5203;48.976;8.306;2024-03-22T08:28:25;14.20;77.30
10316;DHT22;5203;48.976;8.306;2024-03-22T08:30:51;14.40;78.10
10316;DHT22;5203;48.976;8.306;2024-03-22T08:33:20;14.60;76.50
10316;DHT22;5203;48.976;8.306;2024-03-22T08:35:48;14.80;75.50
10316;DHT22;5203;48.976;8.306;2024-03-22T08:38:55;15.00;75.60
10316;DHT22;5203;48.976;8.306;2024-03-22T08:41:37;15.20;72.10
10316;DHT22;5203;48.976;8.306;2024-03-22T08:46:42;15.30;71.00
10316;DHT22;5203;48.976;8.306;2024-03-22T08:49:07;15.20;72.00
10316;DHT22;5203;48.976;8.306;2024-03-22T08:51:57;15.30;71.80
10316;DHT22;5203;48.976;8.306;2024-03-22T08:54:25;15.40;71.40
10316;DHT22;5203;48.976;8.306;2024-03-22T08:57:13;15.40;70.80
10316;DHT22;5203;48.976;8.306;2024-03-22T08:59:45;15.30;70.00
10316;DHT22;5203;48.976;8.306;2024-03-22T09:02:14;15.20;71.20
10316;DHT22;5203;48.976;8.306;2024-03-22T09:04:46;15.30;69.70
10316;DHT22;5203;48.976;8.306;2024-03-22T09:10:57;15.40;69.80
10316;DHT22;5203;48.976;8.306;2024-03-22T09:13:26;15.60;69.40
10316;DHT22;5203;48.976;8.306;2024-03-22T09:16:26;15.70;68.40
10316;DHT22;5203;48.976;8.306;2024-03-22T09:19:25;15.80;67.60
10316;DHT22;5203;48.976;8.306;2024-03-22T09:21:56;15.60;66.10
10316;DHT22;5203;48.976;8.306;2024-03-22T09:24:32;15.80;68.50
10316;DHT22;5203;48.976;8.306;2024-03-22T09:26:58;15.60;65.50
10316;DHT22;5203;48.976;8.306;2024-03-22T09:29:35;15.60;67.10
10316;DHT22;5203;48.976;8.306;2024-03-22T09:32:01;15.70;67.70
10316;DHT22;5203;48.976;8.306;2024-03-22T09:34:41;15.70;68.50
10316;DHT22;5203;48.976;8.306;2024-03-22T09:37:14;15.80;66.90
10316;DHT22;5203;48.976;8.306;2024-03-22T09:39:44;15.90;68.00
10316;DHT22;5203;48.976;8.306;2024-03-22T09:45:15;15.70;68.00
10316;DHT22;5203;48.976;8.306;2024-03-22T09:47:44;15.80;66.40
10316;DHT22;5203;48.976;8.306;2024-03-22T09:50:12;15.80;67.10
10316;DHT22;5203;48.976;8.306;2024-03-22T09:52:38;16.00;67.00
10316;DHT22;5203;48.976;8.306;2024-03-22T09:55:05;15.80;65.50
10316;DHT22;5203;48.976;8.306;2024-03-22T09:57:31;15.80;65.90
10316;DHT22;5203;48.976;8.306;2024-03-22T09:59:59;15.80;66.70
10316;DHT22;5203;48.976;8.306;2024-03-22T10:02:25;15.90;66.40
10316;DHT22;5203;48.976;8.306;2024-03-22T10:04:51;16.00;66.40
10316;DHT22;5203;48.976;8.306;2024-03-22T10:07:18;16.10;66.90
10316;DHT22;5203;48.976;8.306;2024-03-22T10:09:44;16.40;66.50
10316;DHT22;5203;48.976;8.306;2024-03-22T10:12:10;16.50;65.80
10316;DHT22;5203;48.976;8.306;2024-03-22T10:14:35;16.50;66.10
10316;DHT22;5203;48.976;8.306;2024-03-22T10:17:02;16.50;65.20
10316;DHT22;5203;48.976;8.306;2024-03-22T10:19:28;16.60;63.40
10316;DHT22;5203;48.976;8.306;2024-03-22T10:22:00;16.40;63.00
10316;DHT22;5203;48.976;8.306;2024-03-22T10:24:26;16.70;64.40
10316;DHT22;5203;48.976;8.306;2024-03-22T10:26:52;16.70;64.10
10316;DHT22;5203;48.976;8.306;2024-03-22T10:29:18;16.80;60.80
10316;DHT22;5203;48.976;8.306;2024-03-22T10:31:45;16.50;62.30
10316;DHT22;5203;48.976;8.306;2024-03-22T10:34:13;16.70;63.10
10316;DHT22;5203;48.976;8.306;2024-03-22T10:36:40;16.70;60.80
10316;DHT22;5203;48.976;8.306;2024-03-22T10:39:06;16.80;62.70
10316;DHT22;5203;48.976;8.306;2024-03-22T10:41:33;17.00;60.80
10316;DHT22;5203;48.976;8.306;2024-03-22T10:43:59;16.60;61.60
10316;DHT22;5203;48.976;8.306;2024-03-22T10:46:30;16.50;62.10
10316;DHT22;5203;48.976;8.306;2024-03-22T10:48:57;16.40;62.40
10316;DHT22;5203;48.976;8.306;2024-03-22T10:51:26;16.60;60.80
10316;DHT22;5203;48.976;8.306;2024-03-22T10:53:53;16.90;60.90
10316;DHT22;5203;48.976;8.306;2024-03-22T10:56:21;17.10;61.50
10316;DHT22;5203;48.976;8.306;2024-03-22T10:58:48;17.10;60.60
10316;DHT22;5203;48.976;8.306;2024-03-22T11:01:25;16.90;60.40
10316;DHT22;5203;48.976;8.306;2024-03-22T11:03:50;17.20;61.00
10316;DHT22;5203;48.976;8.306;2024-03-22T11:06:20;17.40;59.50
10316;DHT22;5203;48.976;8.306;2024-03-22T11:08:50;17.60;60.20
10316;DHT22;5203;48.976;8.306;2024-03-22T11:11:18;17.60;57.00
10316;DHT22;5203;48.976;8.306;2024-03-22T11:13:47;17.30;58.00
10316;DHT22;5203;48.976;8.306;2024-03-22T11:16:14;17.30;57.60
10316;DHT22;5203;48.976;8.306;2024-03-22T11:18:40;17.40;58.90
10316;DHT22;5203;48.976;8.306;2024-03-22T11:21:06;17.60;58.40
10316;DHT22;5203;48.976;8.306;2024-03-22T11:23:37;17.60;56.50
10316;DHT22;5203;48.976;8.306;2024-03-22T11:26:03;17.40;56.20
10316;DHT22;5203;48.976;8.306;2024-03-22T11:28:30;17.50;54.90
10316;DHT22;5203;48.976;8.306;2024-03-22T11:30:56;17.50;55.40
10316;DHT22;5203;48.976;8.306;2024-03-22T11:33:22;17.40;56.00
10316;DHT22;5203;48.976;8.306;2024-03-22T11:35:47;17.70;55.20
10316;DHT22;5203;48.976;8.306;2024-03-22T11:38:15;17.80;56.70
10316;DHT22;5203;48.976;8.306;2024-03-22T11:40:42;17.80;54.00
10316;DHT22;5203;48.976;8.306;2024-03-22T11:43:08;17.80;54.90
10316;DHT22;5203;48.976;8.306;2024-03-22T11:45:34;17.80;53.00
10316;DHT22;5203;48.976;8.306;2024-03-22T11:48:03;17.60;53.20
10316;DHT22;5203;48.976;8.306;2024-03-22T11:50:32;17.80;53.40
10316;DHT22;5203;48.976;8.306;2024-03-22T11:52:58;17.80;52.70
10316;DHT22;5203;48.976;8.306;2024-03-22T11:55:27;17.80;53.20
10316;DHT22;5203;48.976;8.306;2024-03-22T11:57:53;17.70;52.40
10316;DHT22;5203;48.976;8.306;2024-03-22T12:00:19;17.60;52.00
10316;DHT22;5203;48.976;8.306;2024-03-22T12:02:45;17.70;52.90
10316;DHT22;5203;48.976;8.306;2024-03-22T12:05:11;18.10;50.40
10316;DHT22;5203;48.976;8.306;2024-03-22T12:07:37;18.60;49.70
10316;DHT22;5203;48.976;8.306;2024-03-22T12:10:05;18.90;48.20
10316;DHT22;5203;48.976;8.306;2024-03-22T12:12:30;19.10;48.60
10316;DHT22;5203;48.976;8.306;2024-03-22T12:14:56;19.70;49.20
10316;DHT22;5203;48.976;8.306;2024-03-22T12:17:31;19.30;44.30
10316;DHT22;5203;48.976;8.306;2024-03-22T12:19:56;19.00;44.90
10316;DHT22;5203;48.976;8.306;2024-03-22T12:22:22;19.50;43.60
10316;DHT22;5203;48.976;8.306;2024-03-22T12:24:51;19.80;42.90
10316;DHT22;5203;48.976;8.306;2024-03-22T12:27:17;19.60;41.00
10316;DHT22;5203;48.976;8.306;2024-03-22T12:29:43;19.10;43.50
10316;DHT22;5203;48.976;8.306;2024-03-22T12:32:09;18.90;44.10
10316;DHT22;5203;48.976;8.306;2024-03-22T12:34:35;19.00;42.00
10316;DHT22;5203;48.976;8.306;2024-03-22T12:37:01;18.90;43.00
10316;DHT22;5203;48.976;8.306;2024-03-22T12:39:27;18.80;43.70
10316;DHT22;5203;48.976;8.306;2024-03-22T12:41:53;18.90;44.40
10316;DHT22;5203;48.976;8.306;2024-03-22T12:44:20;19.10;43.50
10316;DHT22;5203;48.976;8.306;2024-03-22T12:46:46;19.20;44.40
10316;DHT22;5203;48.976;8.306;2024-03-22T12:49:12;18.90;44.10
10316;DHT22;5203;48.976;8.306;2024-03-22T12:51:38;19.10;42.60
10316;DHT22;5203;48.976;8.306;2024-03-22T12:54:03;19.20;41.10
10316;DHT22;5203;48.976;8.306;2024-03-22T12:56:30;19.40;41.70
10316;DHT22;5203;48.976;8.306;2024-03-22T12:58:56;19.70;40.60
10316;DHT22;5203;48.976;8.306;2024-03-22T13:01:22;19.80;41.00
10316;DHT22;5203;48.976;8.306;2024-03-22T13:03:47;19.60;40.90
10316;DHT22;5203;48.976;8.306;2024-03-22T13:06:13;19.20;40.90
10316;DHT22;5203;48.976;8.306;2024-03-22T13:08:39;19.00;40.60
10316;DHT22;5203;48.976;8.306;2024-03-22T13:11:05;19.10;40.00
10316;DHT22;5203;48.976;8.306;2024-03-22T13:13:33;19.20;39.80
10316;DHT22;5203;48.976;8.306;2024-03-22T13:15:59;19.20;40.60
10316;DHT22;5203;48.976;8.306;2024-03-22T13:18:28;19.00;40.40
10316;DHT22;5203;48.976;8.306;2024-03-22T13:20:54;18.90;40.90
10316;DHT22;5203;48.976;8.306;2024-03-22T13:23:20;18.50;42.20
10316;DHT22;5203;48.976;8.306;2024-03-22T13:25:45;18.50;44.60
10316;DHT22;5203;48.976;8.306;2024-03-22T13:28:11;18.50;45.00
10316;DHT22;5203;48.976;8.306;2024-03-22T13:30:37;18.40;43.90
10316;DHT22;5203;48.976;8.306;2024-03-22T13:33:03;18.40;44.70
10316;DHT22;5203;48.976;8.306;2024-03-22T13:35:29;18.30;45.20
10316;DHT22;5203;48.976;8.306;2024-03-22T13:37:55;18.10;45.50
10316;DHT22;5203;48.976;8.306;2024-03-22T13:40:21;18.00;45.30
10316;DHT22;5203;48.976;8.306;2024-03-22T13:42:47;17.90;46.50
10316;DHT22;5203;48.976;8.306;2024-03-22T13:45:12;17.90;46.30
10316;DHT22;5203;48.976;8.306;2024-03-22T13:47:38;18.00;45.80
10316;DHT22;5203;48.976;8.306;2024-03-22T13:50:06;18.10;46.30
10316;DHT22;5203;48.976;8.306;2024-03-22T13:52:32;18.10;45.90
10316;DHT22;5203;48.976;8.306;2024-03-22T13:54:57;18.10;45.70
10316;DHT22;5203;48.976;8.306;2024-03-22T13:57:25;18.00;46.90
10316;DHT22;5203;48.976;8.306;2024-03-22T13:59:51;18.10;46.80
10316;DHT22;5203;48.976;8.306;2024-03-22T14:02:17;18.00;48.10
10316;DHT22;5203;48.976;8.306;2024-03-22T14:04:42;17.90;45.30
10316;DHT22;5203;48.976;8.306;2024-03-22T14:07:08;17.80;45.20
10316;DHT22;5203;48.976;8.306;2024-03-22T14:09:35;17.90;47.20
10316;DHT22;5203;48.976;8.306;2024-03-22T14:12:04;18.10;46.70
10316;DHT22;5203;48.976;8.306;2024-03-22T14:14:30;18.10;46.80
10316;DHT22;5203;48.976;8.306;2024-03-22T14:16:56;18.00;46.10
10316;DHT22;5203;48.976;8.306;2024-03-22T14:19:21;18.10;46.10
10316;DHT22;5203;48.976;8.306;2024-03-22T14:21:47;18.10;46.80
10316;DHT22;5203;48.976;8.306;2024-03-22T14:24:13;18.10;47.40
10316;DHT22;5203;48.976;8.306;2024-03-22T14:26:39;18.20;46.60
10316;DHT22;5203;48.976;8.306;2024-03-22T14:29:11;18.10;47.50
10316;DHT22;5203;48.976;8.306;2024-03-22T14:31:38;18.10;47.00
10316;DHT22;5203;48.976;8.306;2024-03-22T14:34:05;18.20;47.20
10316;DHT22;5203;48.976;8.306;2024-03-22T14:36:31;18.30;47.40
10316;DHT22;5203;48.976;8.306;2024-03-22T14:38:58;18.20;47.40
10316;DHT22;5203;48.976;8.306;2024-03-22T14:41:24;18.20;47.50
10316;DHT22;5203;48.976;8.306;2024-03-22T14:43:49;18.30;47.60
10316;DHT22;5203;48.976;8.306;2024-03-22T14:46:16;18.30;47.30
10316;DHT22;5203;48.976;8.306;2024-03-22T14:48:44;18.30;46.90
10316;DHT22;5203;48.976;8.306;2024-03-22T14:51:10;18.20;46.60
10316;DHT22;5203;48.976;8.306;2024-03-22T14:53:35;18.20;46.70
10316;DHT22;5203;48.976;8.306;2024-03-22T14:56:02;18.20;47.90
10316;DHT22;5203;48.976;8.306;2024-03-22T14:58:37;18.10;46.90
10316;DHT22;5203;48.976;8.306;2024-03-22T15:01:04;18.10;46.60
10316;DHT22;5203;48.976;8.306;2024-03-22T15:03:34;18.20;47.20
10316;DHT22;5203;48.976;8.306;2024-03-22T15:06:06;18.10;46.70
10316;DHT22;5203;48.976;8.306;2024-03-22T15:08:32;18.30;47.70
10316;DHT22;5203;48.976;8.306;2024-03-22T15:10:58;18.60;45.70
10316;DHT22;5203;48.976;8.306;2024-03-22T15:13:24;19.40;45.40
10316;DHT22;5203;48.976;8.306;2024-03-22T15:15:54;19.70;42.90
10316;DHT22;5203;48.976;8.306;2024-03-22T15:18:19;19.70;41.80
10316;DHT22;5203;48.976;8.306;2024-03-22T15:20:46;19.80;43.10
10316;DHT22;5203;48.976;8.306;2024-03-22T15:23:12;20.00;42.20
10316;DHT22;5203;48.976;8.306;2024-03-22T15:25:41;20.20;43.10
10316;DHT22;5203;48.976;8.306;2024-03-22T15:28:07;20.50;39.90
10316;DHT22;5203;48.976;8.306;2024-03-22T15:30:32;21.00;40.00
10316;DHT22;5203;48.976;8.306;2024-03-22T15:32:59;20.60;40.60
10316;DHT22;5203;48.976;8.306;2024-03-22T15:35:25;20.10;42.20
10316;DHT22;5203;48.976;8.306;2024-03-22T15:37:51;19.80;42.40
10316;DHT22;5203;48.976;8.306;2024-03-22T15:40:17;19.60;43.30
10316;DHT22;5203;48.976;8.306;2024-03-22T15:42:45;19.30;43.90
10316;DHT22;5203;48.976;8.306;2024-03-22T15:45:10;19.10;44.70
10316;DHT22;5203;48.976;8.306;2024-03-22T15:47:36;19.00;44.70
10316;DHT22;5203;48.976;8.306;2024-03-22T15:50:02;19.00;44.70
10316;DHT22;5203;48.976;8.306;2024-03-22T15:52:27;18.90;44.70
10316;DHT22;5203;48.976;8.306;2024-03-22T15:54:53;18.80;45.60
10316;DHT22;5203;48.976;8.306;2024-03-22T15:57:20;18.80;45.30
10316;DHT22;5203;48.976;8.306;2024-03-22T15:59:46;18.80;45.90
10316;DHT22;5203;48.976;8.306;2024-03-22T16:02:15;18.70;46.90
10316;DHT22;5203;48.976;8.306;2024-03-22T16:04:41;18.60;47.40
10316;DHT22;5203;48.976;8.306;2024-03-22T16:07:07;18.60;47.90
10316;DHT22;5203;48.976;8.306;2024-03-22T16:09:35;18.60;46.80